KCAE/CAE METAR and TAF weather

Enter ICAO airport designator
Station Type Date Time Source
KCAE METAR 2020/01/18 20:56 UTC NOAA

KCAE 182056Z 19007KT 10SM FEW035 BKN060 BKN100 16/08 A3023 RMK AO2 SLP238 T01560083 56035


Station Type Date Time Source
KCAE Decoded METAR 2020/01/18 20:56 UTC NOAA

COLUMBIA METROPOLITAN AIRPORT , SC, United States (KCAE) 33-57N 081-07W 73M
Jan 18, 2020 - 03:56 PM EST / 2020.01.18 2056 UTC
Wind: from the S (190 degrees) at 8 MPH (7 KT):0
Visibility: 10 mile(s):0
Sky conditions: mostly cloudy
Temperature: 60.1 F (15.6 C)
Dew Point: 46.9 F (8.3 C)
Relative Humidity: 61%
Pressure (altimeter): 30.23 in. Hg (1023 hPa)
Pressure tendency: 0.10 inches (3.5 hPa) lower than three hours ago
ob: KCAE 182056Z 19007KT 10SM FEW035 BKN060 BKN100 16/08 A3023 RMK AO2 SLP238 T01560083 56035
cycle: 21

Station Type Date Time Source
KCAE TAF 2020/01/18 21:12 UTC NOAA

TAF
AMD KCAE 182108Z 1821/1918 14008KT P6SM VCSH SCT025 BKN060
TEMPO 1821/1824 -SHRA BKN025
FM190000 16008KT P6SM -SHRA BKN025 OVC050 WS020/20038KT
FM190400 23010G16KT P6SM -SHRA OVC015 WS020/22045KT
FM191200 28010G18KT P6SM SCT035

Example: see airport list